sensor_id;sensor_type;location;lat;lon;timestamp;pressure;altitude;pressure_sealevel;temperature;humidity
79048;BME280;68680;50.764;6.120;2024-02-14T00:01:50;99424.44;;;8.08;nan
79048;BME280;68680;50.764;6.120;2024-02-14T00:04:16;99430.97;;;8.12;nan
79048;BME280;68680;50.764;6.120;2024-02-14T00:06:42;99427.09;;;8.08;nan
79048;BME280;68680;50.764;6.120;2024-02-14T00:09:08;99423.16;;;8.23;nan
79048;BME280;68680;50.764;6.120;2024-02-14T00:11:34;99427.91;;;8.08;nan
79048;BME280;68680;50.764;6.120;2024-02-14T00:14:01;99418.88;;;8.16;nan
79048;BME280;68680;50.764;6.120;2024-02-14T00:16:28;99427.28;;;8.13;nan
79048;BME280;68680;50.764;6.120;2024-02-14T00:18:54;99420.94;;;8.20;nan
79048;BME280;68680;50.764;6.120;2024-02-14T00:21:19;99419.94;;;8.15;nan
79048;BME280;68680;50.764;6.120;2024-02-14T00:23:45;99424.59;;;8.26;nan
79048;BME280;68680;50.764;6.120;2024-02-14T00:26:11;99426.22;;;8.27;nan
79048;BME280;68680;50.764;6.120;2024-02-14T00:28:37;99421.94;;;8.26;nan
79048;BME280;68680;50.764;6.120;2024-02-14T00:31:05;99423.34;;;8.29;nan
79048;BME280;68680;50.764;6.120;2024-02-14T00:33:31;99412.16;;;8.20;nan
79048;BME280;68680;50.764;6.120;2024-02-14T00:35:57;99415.63;;;8.20;nan
79048;BME280;68680;50.764;6.120;2024-02-14T00:38:23;99418.28;;;8.20;nan
79048;BME280;68680;50.764;6.120;2024-02-14T00:40:49;99411.91;;;8.28;nan
79048;BME280;68680;50.764;6.120;2024-02-14T00:43:15;99397.63;;;8.16;nan
79048;BME280;68680;50.764;6.120;2024-02-14T00:45:41;99402.72;;;8.24;nan
79048;BME280;68680;50.764;6.120;2024-02-14T00:48:08;99400.69;;;8.26;nan
79048;BME280;68680;50.764;6.120;2024-02-14T00:50:34;99397.22;;;8.32;nan
79048;BME280;68680;50.764;6.120;2024-02-14T00:53:00;99400.06;;;8.24;nan
79048;BME280;68680;50.764;6.120;2024-02-14T00:55:26;99390.84;;;8.40;nan
79048;BME280;68680;50.764;6.120;2024-02-14T00:57:52;99396.41;;;8.32;nan
79048;BME280;68680;50.764;6.120;2024-02-14T01:00:18;99393.13;;;8.23;nan
79048;BME280;68680;50.764;6.120;2024-02-14T01:02:44;99384.31;;;8.36;nan
79048;BME280;68680;50.764;6.120;2024-02-14T01:05:11;99378.00;;;8.23;nan
79048;BME280;68680;50.764;6.120;2024-02-14T01:07:37;99384.78;;;8.19;nan
79048;BME280;68680;50.764;6.120;2024-02-14T01:10:04;99386.59;;;8.19;nan
79048;BME280;68680;50.764;6.120;2024-02-14T01:12:31;99393.97;;;8.17;nan
79048;BME280;68680;50.764;6.120;2024-02-14T01:14:57;99397.63;;;8.22;nan
79048;BME280;68680;50.764;6.120;2024-02-14T01:17:23;99408.84;;;8.24;nan
79048;BME280;68680;50.764;6.120;2024-02-14T01:19:49;99393.56;;;8.20;nan
79048;BME280;68680;50.764;6.120;2024-02-14T01:22:17;99403.56;;;8.18;nan
79048;BME280;68680;50.764;6.120;2024-02-14T01:24:43;99390.06;;;8.33;nan
79048;BME280;68680;50.764;6.120;2024-02-14T01:27:09;99383.50;;;8.22;nan
79048;BME280;68680;50.764;6.120;2024-02-14T01:29:35;99388.25;;;8.20;nan
79048;BME280;68680;50.764;6.120;2024-02-14T01:32:01;99391.91;;;8.32;nan
79048;BME280;68680;50.764;6.120;2024-02-14T01:34:27;99388.41;;;8.38;nan
79048;BME280;68680;50.764;6.120;2024-02-14T01:36:54;99392.50;;;8.34;nan
79048;BME280;68680;50.764;6.120;2024-02-14T01:39:21;99392.28;;;8.29;nan
79048;BME280;68680;50.764;6.120;2024-02-14T01:41:48;99396.41;;;8.25;nan
79048;BME280;68680;50.764;6.120;2024-02-14T01:44:14;99387.78;;;8.36;nan
79048;BME280;68680;50.764;6.120;2024-02-14T01:46:40;99383.31;;;8.23;nan
79048;BME280;68680;50.764;6.120;2024-02-14T01:49:06;99385.97;;;8.30;nan
79048;BME280;68680;50.764;6.120;2024-02-14T01:51:35;99387.81;;;8.23;nan
79048;BME280;68680;50.764;6.120;2024-02-14T01:54:02;99390.91;;;8.20;nan
79048;BME280;68680;50.764;6.120;2024-02-14T01:56:30;99390.91;;;8.20;nan
79048;BME280;68680;50.764;6.120;2024-02-14T01:58:56;99388.00;;;8.21;nan
79048;BME280;68680;50.764;6.120;2024-02-14T02:01:24;99393.59;;;8.07;nan
79048;BME280;68680;50.764;6.120;2024-02-14T02:03:50;99380.50;;;8.05;nan
79048;BME280;68680;50.764;6.120;2024-02-14T02:06:16;99376.44;;;8.03;nan
79048;BME280;68680;50.764;6.120;2024-02-14T02:08:43;99388.28;;;8.07;nan
79048;BME280;68680;50.764;6.120;2024-02-14T02:11:09;99394.97;;;8.16;nan
79048;BME280;68680;50.764;6.120;2024-02-14T02:13:36;99405.41;;;8.17;nan
79048;BME280;68680;50.764;6.120;2024-02-14T02:16:03;99407.03;;;8.25;nan
79048;BME280;68680;50.764;6.120;2024-02-14T02:18:29;99412.56;;;8.30;nan
79048;BME280;68680;50.764;6.120;2024-02-14T02:20:55;99420.91;;;8.34;nan
79048;BME280;68680;50.764;6.120;2024-02-14T02:23:22;99434.59;;;8.44;nan
79048;BME280;68680;50.764;6.120;2024-02-14T02:25:48;99425.72;;;8.56;nan
79048;BME280;68680;50.764;6.120;2024-02-14T02:28:14;99419.63;;;8.49;nan
79048;BME280;68680;50.764;6.120;2024-02-14T02:30:40;99430.19;;;8.62;nan
79048;BME280;68680;50.764;6.120;2024-02-14T02:33:06;99422.41;;;8.68;nan
79048;BME280;68680;50.764;6.120;2024-02-14T02:35:32;99418.31;;;8.65;nan
79048;BME280;68680;50.764;6.120;2024-02-14T02:37:57;99416.47;;;8.72;nan
79048;BME280;68680;50.764;6.120;2024-02-14T02:40:25;99414.63;;;8.73;nan
79048;BME280;68680;50.764;6.120;2024-02-14T02:42:51;99410.91;;;8.74;nan
79048;BME280;68680;50.764;6.120;2024-02-14T02:45:17;99408.00;;;8.82;nan
79048;BME280;68680;50.764;6.120;2024-02-14T02:47:43;99413.00;;;8.65;nan
79048;BME280;68680;50.764;6.120;2024-02-14T02:50:09;99423.22;;;8.68;nan
79048;BME280;68680;50.764;6.120;2024-02-14T02:52:35;99420.34;;;8.70;nan
79048;BME280;68680;50.764;6.120;2024-02-14T02:55:01;99411.16;;;8.65;nan
79048;BME280;68680;50.764;6.120;2024-02-14T02:57:29;99409.75;;;8.63;nan
79048;BME280;68680;50.764;6.120;2024-02-14T02:59:54;99400.56;;;8.59;nan
79048;BME280;68680;50.764;6.120;2024-02-14T03:02:20;99419.63;;;8.56;nan
79048;BME280;68680;50.764;6.120;2024-02-14T03:04:46;99415.72;;;8.52;nan
79048;BME280;68680;50.764;6.120;2024-02-14T03:07:12;99411.03;;;8.47;nan
79048;BME280;68680;50.764;6.120;2024-02-14T03:09:38;99419.25;;;8.39;nan
79048;BME280;68680;50.764;6.120;2024-02-14T03:12:05;99424.00;;;8.31;nan
79048;BME280;68680;50.764;6.120;2024-02-14T03:14:33;99413.38;;;8.17;nan
79048;BME280;68680;50.764;6.120;2024-02-14T03:16:59;99417.66;;;8.25;nan
79048;BME280;68680;50.764;6.120;2024-02-14T03:19:25;99419.69;;;8.23;nan
79048;BME280;68680;50.764;6.120;2024-02-14T03:21:51;99418.88;;;8.16;nan
79048;BME280;68680;50.764;6.120;2024-02-14T03:24:17;99420.72;;;8.15;nan
79048;BME280;68680;50.764;6.120;2024-02-14T03:26:43;99415.84;;;8.19;nan
79048;BME280;68680;50.764;6.120;2024-02-14T03:29:09;99415.41;;;8.15;nan
79048;BME280;68680;50.764;6.120;2024-02-14T03:31:36;99414.78;;;8.27;nan
79048;BME280;68680;50.764;6.120;2024-02-14T03:34:02;99417.22;;;8.28;nan
79048;BME280;68680;50.764;6.120;2024-02-14T03:36:28;99418.25;;;8.34;nan
79048;BME280;68680;50.764;6.120;2024-02-14T03:38:54;99411.31;;;8.26;nan
79048;BME280;68680;50.764;6.120;2024-02-14T03:41:19;99417.00;;;8.30;nan
79048;BME280;68680;50.764;6.120;2024-02-14T03:43:45;99414.38;;;8.23;nan
79048;BME280;68680;50.764;6.120;2024-02-14T03:46:11;99424.56;;;8.39;nan
79048;BME280;68680;50.764;6.120;2024-02-14T03:48:38;99410.50;;;8.32;nan
79048;BME280;68680;50.764;6.120;2024-02-14T03:51:05;99415.19;;;8.23;nan
79048;BME280;68680;50.764;6.120;2024-02-14T03:53:30;99421.75;;;8.21;nan
79048;BME280;68680;50.764;6.120;2024-02-14T03:55:56;99417.22;;;8.28;nan
79048;BME280;68680;50.764;6.120;2024-02-14T03:58:22;99423.59;;;8.20;nan
79048;BME280;68680;50.764;6.120;2024-02-14T04:00:49;99426.03;;;8.22;nan
79048;BME280;68680;50.764;6.120;2024-02-14T04:03:15;99427.84;;;8.28;nan
79048;BME280;68680;50.764;6.120;2024-02-14T04:05:43;99442.19;;;8.20;nan
79048;BME280;68680;50.764;6.120;2024-02-14T04:08:09;99435.63;;;8.23;nan
79048;BME280;68680;50.764;6.120;2024-02-14T04:10:35;99432.97;;;8.23;nan
79048;BME280;68680;50.764;6.120;2024-02-14T04:13:00;99442.16;;;8.34;nan
79048;BME280;68680;50.764;6.120;2024-02-14T04:15:26;99431.97;;;8.31;nan
79048;BME280;68680;50.764;6.120;2024-02-14T04:17:52;99443.41;;;8.38;nan
79048;BME280;68680;50.764;6.120;2024-02-14T04:20:18;99424.00;;;8.31;nan
79048;BME280;68680;50.764;6.120;2024-02-14T04:22:45;99432.34;;;8.34;nan
79048;BME280;68680;50.764;6.120;2024-02-14T04:25:11;99440.75;;;8.38;nan
79048;BME280;68680;50.764;6.120;2024-02-14T04:27:37;99435.00;;;8.34;nan
79048;BME280;68680;50.764;6.120;2024-02-14T04:30:04;99446.47;;;8.35;nan
79048;BME280;68680;50.764;6.120;2024-02-14T04:32:30;99443.22;;;8.33;nan
79048;BME280;68680;50.764;6.120;2024-02-14T04:34:56;99450.38;;;8.32;nan
79048;BME280;68680;50.764;6.120;2024-02-14T04:37:22;99457.06;;;8.41;nan
79048;BME280;68680;50.764;6.120;2024-02-14T04:39:49;99450.56;;;8.37;nan
79048;BME280;68680;50.764;6.120;2024-02-14T04:42:15;99449.31;;;8.40;nan
79048;BME280;68680;50.764;6.120;2024-02-14T04:44:41;99449.53;;;8.38;nan
79048;BME280;68680;50.764;6.120;2024-02-14T04:47:07;99446.69;;;8.27;nan
79048;BME280;68680;50.764;6.120;2024-02-14T04:49:33;99448.09;;;8.29;nan
79048;BME280;68680;50.764;6.120;2024-02-14T04:51:59;99452.59;;;8.22;nan
79048;BME280;68680;50.764;6.120;2024-02-14T04:54:24;99451.59;;;8.10;nan
79048;BME280;68680;50.764;6.120;2024-02-14T04:56:52;99452.00;;;8.13;nan
79048;BME280;68680;50.764;6.120;2024-02-14T04:59:18;99456.31;;;8.14;nan
79048;BME280;68680;50.764;6.120;2024-02-14T05:01:43;99453.66;;;8.14;nan
79048;BME280;68680;50.764;6.120;2024-02-14T05:04:09;99457.13;;;8.08;nan
79048;BME280;68680;50.764;6.120;2024-02-14T05:06:35;99467.13;;;8.19;nan
79048;BME280;68680;50.764;6.120;2024-02-14T05:09:01;99466.31;;;8.19;nan
79048;BME280;68680;50.764;6.120;2024-02-14T05:11:27;99471.81;;;8.17;nan
79048;BME280;68680;50.764;6.120;2024-02-14T05:13:54;99473.84;;;8.22;nan
79048;BME280;68680;50.764;6.120;2024-02-14T05:16:20;99468.53;;;8.22;nan
79048;BME280;68680;50.764;6.120;2024-02-14T05:18:46;99474.47;;;8.24;nan
79048;BME280;68680;50.764;6.120;2024-02-14T05:21:12;99476.13;;;8.18;nan
79048;BME280;68680;50.764;6.120;2024-02-14T05:23:38;99483.84;;;8.33;nan
79048;BME280;68680;50.764;6.120;2024-02-14T05:26:06;99476.94;;;8.32;nan
79048;BME280;68680;50.764;6.120;2024-02-14T05:28:32;99479.97;;;8.22;nan
79048;BME280;68680;50.764;6.120;2024-02-14T05:31:01;99467.94;;;8.20;nan
79048;BME280;68680;50.764;6.120;2024-02-14T05:33:27;99472.44;;;8.26;nan
79048;BME280;68680;50.764;6.120;2024-02-14T05:35:53;99470.59;;;8.27;nan
79048;BME280;68680;50.764;6.120;2024-02-14T05:38:19;99478.13;;;8.30;nan
79048;BME280;68680;50.764;6.120;2024-02-14T05:40:45;99478.16;;;8.36;nan
79048;BME280;68680;50.764;6.120;2024-02-14T05:43:11;99468.75;;;8.34;nan
79048;BME280;68680;50.764;6.120;2024-02-14T05:45:37;99473.84;;;8.42;nan
79048;BME280;68680;50.764;6.120;2024-02-14T05:48:05;99483.19;;;8.57;nan
79048;BME280;68680;50.764;6.120;2024-02-14T05:50:31;99474.22;;;8.45;nan
79048;BME280;68680;50.764;6.120;2024-02-14T05:52:58;99471.53;;;8.52;nan
79048;BME280;68680;50.764;6.120;2024-02-14T05:55:24;99478.31;;;8.48;nan
79048;BME280;68680;50.764;6.120;2024-02-14T05:57:50;99468.31;;;8.50;nan
79048;BME280;68680;50.764;6.120;2024-02-14T06:00:17;99465.59;;;8.56;nan
79048;BME280;68680;50.764;6.120;2024-02-14T06:02:43;99463.59;;;8.45;nan
79048;BME280;68680;50.764;6.120;2024-02-14T06:05:10;99476.03;;;8.51;nan
79048;BME280;68680;50.764;6.120;2024-02-14T06:07:36;99472.78;;;8.56;nan
79048;BME280;68680;50.764;6.120;2024-02-14T06:10:02;99470.34;;;8.48;nan
79048;BME280;68680;50.764;6.120;2024-02-14T06:12:28;99478.50;;;8.53;nan
79048;BME280;68680;50.764;6.120;2024-02-14T06:14:54;99487.28;;;8.53;nan
79048;BME280;68680;50.764;6.120;2024-02-14T06:17:20;99471.53;;;8.52;nan
79048;BME280;68680;50.764;6.120;2024-02-14T06:19:46;99483.56;;;8.68;nan
79048;BME280;68680;50.764;6.120;2024-02-14T06:22:13;99469.41;;;8.74;nan
79048;BME280;68680;50.764;6.120;2024-02-14T06:24:39;99479.03;;;8.68;nan
79048;BME280;68680;50.764;6.120;2024-02-14T06:27:06;99476.19;;;8.70;nan
79048;BME280;68680;50.764;6.120;2024-02-14T06:29:32;99482.59;;;8.55;nan
79048;BME280;68680;50.764;6.120;2024-02-14T06:31:57;99482.53;;;8.62;nan
79048;BME280;68680;50.764;6.120;2024-02-14T06:34:23;99476.47;;;8.55;nan
79048;BME280;68680;50.764;6.120;2024-02-14T06:36:49;99482.97;;;8.59;nan
79048;BME280;68680;50.764;6.120;2024-02-14T06:39:18;99494.22;;;8.61;nan
79048;BME280;68680;50.764;6.120;2024-02-14T06:41:44;99498.28;;;8.63;nan
79048;BME280;68680;50.764;6.120;2024-02-14T06:44:10;99497.88;;;8.67;nan
79048;BME280;68680;50.764;6.120;2024-02-14T06:46:36;99499.06;;;8.77;nan
79048;BME280;68680;50.764;6.120;2024-02-14T06:49:02;99498.22;;;8.83;nan
79048;BME280;68680;50.764;6.120;2024-02-14T06:51:28;99507.44;;;8.81;nan
79048;BME280;68680;50.764;6.120;2024-02-14T06:53:53;99502.94;;;8.81;nan
79048;BME280;68680;50.764;6.120;2024-02-14T06:56:21;99516.41;;;8.86;nan
79048;BME280;68680;50.764;6.120;2024-02-14T06:58:46;99519.88;;;8.87;nan
79048;BME280;68680;50.764;6.120;2024-02-14T07:01:12;99519.88;;;8.87;nan
79048;BME280;68680;50.764;6.120;2024-02-14T07:03:38;99520.06;;;8.92;nan
79048;BME280;68680;50.764;6.120;2024-02-14T07:06:05;99521.03;;;9.04;nan
79048;BME280;68680;50.764;6.120;2024-02-14T07:08:30;99524.16;;;8.94;nan
79048;BME280;68680;50.764;6.120;2024-02-14T07:10:56;99523.34;;;8.94;nan
79048;BME280;68680;50.764;6.120;2024-02-14T07:13:23;99527.19;;;8.98;nan
79048;BME280;68680;50.764;6.120;2024-02-14T07:15:49;99520.66;;;9.00;nan
79048;BME280;68680;50.764;6.120;2024-02-14T07:18:15;99521.41;;;9.14;nan
79048;BME280;68680;50.764;6.120;2024-02-14T07:20:42;99529.00;;;9.04;nan
79048;BME280;68680;50.764;6.120;2024-02-14T07:23:07;99527.00;;;8.99;nan
79048;BME280;68680;50.764;6.120;2024-02-14T07:25:33;99536.19;;;8.97;nan
79048;BME280;68680;50.764;6.120;2024-02-14T07:27:59;99534.16;;;8.99;nan
79048;BME280;68680;50.764;6.120;2024-02-14T07:30:26;99525.75;;;9.02;nan
79048;BME280;68680;50.764;6.120;2024-02-14T07:32:52;99533.50;;;9.03;nan
79048;BME280;68680;50.764;6.120;2024-02-14T07:35:18;99524.47;;;9.11;nan
79048;BME280;68680;50.764;6.120;2024-02-14T07:37:44;99525.31;;;9.12;nan
79048;BME280;68680;50.764;6.120;2024-02-14T07:40:11;99527.72;;;9.20;nan
79048;BME280;68680;50.764;6.120;2024-02-14T07:42:37;99519.28;;;9.29;nan
79048;BME280;68680;50.764;6.120;2024-02-14T07:45:04;99517.22;;;9.31;nan
79048;BME280;68680;50.764;6.120;2024-02-14T07:47:31;99516.09;;;9.45;nan
79048;BME280;68680;50.764;6.120;2024-02-14T07:49:57;99529.69;;;9.62;nan
79048;BME280;68680;50.764;6.120;2024-02-14T07:52:23;99524.53;;;9.67;nan
79048;BME280;68680;50.764;6.120;2024-02-14T07:54:52;99520.59;;;9.76;nan
79048;BME280;68680;50.764;6.120;2024-02-14T07:57:18;99523.63;;;9.80;nan
79048;BME280;68680;50.764;6.120;2024-02-14T07:59:44;99534.31;;;9.73;nan
79048;BME280;68680;50.764;6.120;2024-02-14T08:02:09;99539.97;;;9.59;nan
79048;BME280;68680;50.764;6.120;2024-02-14T08:04:37;99533.63;;;9.60;nan
79048;BME280;68680;50.764;6.120;2024-02-14T08:07:03;99532.31;;;9.69;nan
79048;BME280;68680;50.764;6.120;2024-02-14T08:09:29;99536.78;;;9.75;nan
79048;BME280;68680;50.764;6.120;2024-02-14T08:11:55;99533.75;;;9.71;nan
79048;BME280;68680;50.764;6.120;2024-02-14T08:14:21;99537.91;;;9.85;nan
79048;BME280;68680;50.764;6.120;2024-02-14T08:16:47;99535.03;;;9.87;nan
79048;BME280;68680;50.764;6.120;2024-02-14T08:19:13;99536.63;;;9.95;nan
79048;BME280;68680;50.764;6.120;2024-02-14T08:21:40;99533.72;;;9.96;nan
79048;BME280;68680;50.764;6.120;2024-02-14T08:24:06;99529.00;;;9.98;nan
79048;BME280;68680;50.764;6.120;2024-02-14T08:26:32;99539.78;;;10.10;nan
79048;BME280;68680;50.764;6.120;2024-02-14T08:28:58;99536.13;;;10.04;nan
79048;BME280;68680;50.764;6.120;2024-02-14T08:31:24;99534.22;;;10.11;nan
79048;BME280;68680;50.764;6.120;2024-02-14T08:33:50;99540.59;;;10.10;nan
79048;BME280;68680;50.764;6.120;2024-02-14T08:36:16;99538.50;;;10.19;nan
79048;BME280;68680;50.764;6.120;2024-02-14T08:38:43;99542.31;;;10.29;nan
79048;BME280;68680;50.764;6.120;2024-02-14T08:41:09;99546.97;;;10.34;nan
79048;BME280;68680;50.764;6.120;2024-02-14T08:43:34;99547.78;;;10.35;nan
79048;BME280;68680;50.764;6.120;2024-02-14T08:46:00;99550.25;;;10.36;nan
79048;BME280;68680;50.764;6.120;2024-02-14T08:48:26;99544.09;;;10.36;nan
79048;BME280;68680;50.764;6.120;2024-02-14T08:50:52;99544.59;;;10.44;nan
79048;BME280;68680;50.764;6.120;2024-02-14T08:53:18;99543.94;;;10.49;nan
79048;BME280;68680;50.764;6.120;2024-02-14T08:55:45;99539.56;;;10.54;nan
79048;BME280;68680;50.764;6.120;2024-02-14T08:58:11;99551.88;;;10.55;nan
79048;BME280;68680;50.764;6.120;2024-02-14T09:00:37;99544.25;;;10.59;nan
79048;BME280;68680;50.764;6.120;2024-02-14T09:03:03;99547.56;;;10.73;nan
79048;BME280;68680;50.764;6.120;2024-02-14T09:05:31;99552.16;;;10.84;nan
79048;BME280;68680;50.764;6.120;2024-02-14T09:07:57;99559.13;;;10.85;nan
79048;BME280;68680;50.764;6.120;2024-02-14T09:10:23;99555.28;;;10.81;nan
79048;BME280;68680;50.764;6.120;2024-02-14T09:12:50;99557.28;;;10.85;nan
79048;BME280;68680;50.764;6.120;2024-02-14T09:15:16;99559.81;;;10.98;nan
79048;BME280;68680;50.764;6.120;2024-02-14T09:17:42;99562.78;;;10.90;nan
79048;BME280;68680;50.764;6.120;2024-02-14T09:20:09;99569.19;;;11.01;nan
79048;BME280;68680;50.764;6.120;2024-02-14T09:22:35;99568.47;;;11.12;nan
79048;BME280;68680;50.764;6.120;2024-02-14T09:25:01;99575.34;;;11.01;nan
79048;BME280;68680;50.764;6.120;2024-02-14T09:27:27;99570.91;;;10.95;nan
79048;BME280;68680;50.764;6.120;2024-02-14T09:29:54;99579.16;;;10.94;nan
79048;BME280;68680;50.764;6.120;2024-02-14T09:32:20;99573.66;;;11.07;nan
79048;BME280;68680;50.764;6.120;2024-02-14T09:34:46;99586.56;;;11.10;nan
79048;BME280;68680;50.764;6.120;2024-02-14T09:37:12;99589.91;;;11.05;nan
79048;BME280;68680;50.764;6.120;2024-02-14T09:39:38;99597.38;;;11.15;nan
79048;BME280;68680;50.764;6.120;2024-02-14T09:42:09;99608.28;;;11.13;nan
79048;BME280;68680;50.764;6.120;2024-02-14T09:44:37;99608.88;;;11.16;nan
79048;BME280;68680;50.764;6.120;2024-02-14T09:47:05;99592.78;;;11.04;nan
79048;BME280;68680;50.764;6.120;2024-02-14T09:49:35;99590.72;;;11.06;nan
79048;BME280;68680;50.764;6.120;2024-02-14T09:52:02;99598.88;;;11.11;nan
79048;BME280;68680;50.764;6.120;2024-02-14T09:54:28;99593.00;;;11.02;nan
79048;BME280;68680;50.764;6.120;2024-02-14T09:56:55;99607.16;;;11.03;nan
79048;BME280;68680;50.764;6.120;2024-02-14T09:59:22;99604.97;;;11.00;nan
79048;BME280;68680;50.764;6.120;2024-02-14T10:01:48;99604.81;;;10.77;nan
79048;BME280;68680;50.764;6.120;2024-02-14T10:04:15;99617.31;;;10.76;nan
79048;BME280;68680;50.764;6.120;2024-02-14T10:06:41;99620.88;;;10.70;nan
79048;BME280;68680;50.764;6.120;2024-02-14T10:09:07;99617.31;;;10.76;nan
79048;BME280;68680;50.764;6.120;2024-02-14T10:11:33;99609.97;;;10.53;nan
79048;BME280;68680;50.764;6.120;2024-02-14T10:13:59;99617.16;;;10.53;nan
79048;BME280;68680;50.764;6.120;2024-02-14T10:16:26;99617.97;;;10.53;nan
79048;BME280;68680;50.764;6.120;2024-02-14T10:18:52;99608.16;;;10.47;nan
79048;BME280;68680;50.764;6.120;2024-02-14T10:21:19;99614.31;;;10.66;nan
79048;BME280;68680;50.764;6.120;2024-02-14T10:23:45;99618.56;;;10.74;nan
79048;BME280;68680;50.764;6.120;2024-02-14T10:26:11;99623.09;;;10.73;nan
79048;BME280;68680;50.764;6.120;2024-02-14T10:28:40;99614.97;;;10.86;nan
79048;BME280;68680;50.764;6.120;2024-02-14T10:31:06;99605.09;;;10.87;nan
79048;BME280;68680;50.764;6.120;2024-02-14T10:33:32;99623.50;;;10.95;nan
79048;BME280;68680;50.764;6.120;2024-02-14T10:35:59;99616.47;;;11.00;nan
79048;BME280;68680;50.764;6.120;2024-02-14T10:38:30;99610.94;;;11.13;nan
79048;BME280;68680;50.764;6.120;2024-02-14T10:40:58;99617.03;;;11.21;nan
79048;BME280;68680;50.764;6.120;2024-02-14T10:43:25;99610.94;;;11.13;nan
79048;BME280;68680;50.764;6.120;2024-02-14T10:45:52;99608.53;;;11.12;nan
79048;BME280;68680;50.764;6.120;2024-02-14T10:48:22;99619.69;;;11.02;nan
79048;BME280;68680;50.764;6.120;2024-02-14T10:50:50;99617.56;;;11.11;nan
79048;BME280;68680;50.764;6.120;2024-02-14T10:53:18;99620.38;;;11.16;nan
79048;BME280;68680;50.764;6.120;2024-02-14T10:55:48;99615.78;;;11.05;nan
79048;BME280;68680;50.764;6.120;2024-02-14T10:58:16;99621.75;;;11.19;nan
79048;BME280;68680;50.764;6.120;2024-02-14T11:00:43;99618.13;;;11.13;nan
79048;BME280;68680;50.764;6.120;2024-02-14T11:03:10;99616.53;;;11.12;nan
79048;BME280;68680;50.764;6.120;2024-02-14T11:05:44;99615.09;;;11.28;nan
79048;BME280;68680;50.764;6.120;2024-02-14T11:08:13;99604.78;;;11.13;nan
79048;BME280;68680;50.764;6.120;2024-02-14T11:10:39;99610.94;;;11.13;nan
79048;BME280;68680;50.764;6.120;2024-02-14T11:13:10;99621.31;;;11.40;nan
79048;BME280;68680;50.764;6.120;2024-02-14T11:15:38;99618.38;;;11.30;nan
79048;BME280;68680;50.764;6.120;2024-02-14T11:18:05;99614.72;;;11.24;nan
79048;BME280;68680;50.764;6.120;2024-02-14T11:20:33;99613.38;;;11.33;nan
79048;BME280;68680;50.764;6.120;2024-02-14T11:23:03;99615.22;;;11.33;nan
79048;BME280;68680;50.764;6.120;2024-02-14T11:25:30;99610.19;;;11.25;nan
79048;BME280;68680;50.764;6.120;2024-02-14T11:27:57;99609.22;;;11.37;nan
79048;BME280;68680;50.764;6.120;2024-02-14T11:30:34;99606.16;;;11.52;nan
79048;BME280;68680;50.764;6.120;2024-02-14T11:33:15;99612.66;;;11.56;nan
79048;BME280;68680;50.764;6.120;2024-02-14T11:35:42;99615.56;;;11.54;nan
79048;BME280;68680;50.764;6.120;2024-02-14T11:38:08;99612.84;;;11.73;nan
79048;BME280;68680;50.764;6.120;2024-02-14T11:40:34;99611.09;;;11.67;nan
79048;BME280;68680;50.764;6.120;2024-02-14T11:43:00;99608.50;;;11.60;nan
79048;BME280;68680;50.764;6.120;2024-02-14T11:45:27;99615.59;;;11.66;nan
79048;BME280;68680;50.764;6.120;2024-02-14T11:47:54;99605.13;;;11.53;nan
79048;BME280;68680;50.764;6.120;2024-02-14T11:50:21;99616.06;;;11.63;nan
79048;BME280;68680;50.764;6.120;2024-02-14T11:52:47;99600.25;;;11.62;nan
79048;BME280;68680;50.764;6.120;2024-02-14T11:55:17;99602.59;;;11.58;nan
79048;BME280;68680;50.764;6.120;2024-02-14T11:57:43;99593.47;;;11.47;nan
79048;BME280;68680;50.764;6.120;2024-02-14T12:00:09;99599.47;;;11.43;nan
79048;BME280;68680;50.764;6.120;2024-02-14T12:02:35;99587.56;;;11.27;nan
79048;BME280;68680;50.764;6.120;2024-02-14T12:05:04;99579.41;;;11.40;nan
79048;BME280;68680;50.764;6.120;2024-02-14T12:07:30;99586.91;;;11.32;nan
79048;BME280;68680;50.764;6.120;2024-02-14T12:09:57;99583.66;;;11.30;nan
79048;BME280;68680;50.764;6.120;2024-02-14T12:12:24;99587.38;;;11.29;nan
79048;BME280;68680;50.764;6.120;2024-02-14T12:14:52;99584.84;;;11.16;nan
79048;BME280;68680;50.764;6.120;2024-02-14T12:17:17;99592.50;;;11.12;nan
79048;BME280;68680;50.764;6.120;2024-02-14T12:19:43;99589.91;;;11.05;nan
79048;BME280;68680;50.764;6.120;2024-02-14T12:22:11;99588.81;;;10.95;nan
79048;BME280;68680;50.764;6.120;2024-02-14T12:24:37;99587.44;;;10.86;nan
79048;BME280;68680;50.764;6.120;2024-02-14T12:27:04;99579.97;;;10.76;nan
79048;BME280;68680;50.764;6.120;2024-02-14T12:29:30;99570.34;;;10.75;nan
79048;BME280;68680;50.764;6.120;2024-02-14T12:32:04;99580.28;;;10.86;nan
79048;BME280;68680;50.764;6.120;2024-02-14T12:34:30;99583.41;;;10.83;nan
79048;BME280;68680;50.764;6.120;2024-02-14T12:36:57;99577.06;;;10.78;nan
79048;BME280;68680;50.764;6.120;2024-02-14T12:39:24;99576.09;;;10.90;nan
79048;BME280;68680;50.764;6.120;2024-02-14T12:41:50;99584.13;;;10.90;nan
79048;BME280;68680;50.764;6.120;2024-02-14T12:44:16;99579.25;;;10.87;nan
79048;BME280;68680;50.764;6.120;2024-02-14T12:46:42;99578.84;;;10.84;nan
79048;BME280;68680;50.764;6.120;2024-02-14T12:49:08;99570.84;;;10.84;nan
79048;BME280;68680;50.764;6.120;2024-02-14T12:51:34;99569.81;;;10.85;nan
79048;BME280;68680;50.764;6.120;2024-02-14T12:54:00;99573.63;;;10.77;nan
79048;BME280;68680;50.764;6.120;2024-02-14T12:56:27;99573.97;;;10.81;nan
79048;BME280;68680;50.764;6.120;2024-02-14T12:58:53;99579.91;;;10.83;nan
79048;BME280;68680;50.764;6.120;2024-02-14T13:01:19;99582.13;;;10.86;nan
79048;BME280;68680;50.764;6.120;2024-02-14T13:03:45;99576.09;;;10.90;nan
79048;BME280;68680;50.764;6.120;2024-02-14T13:06:11;99575.06;;;10.91;nan
79048;BME280;68680;50.764;6.120;2024-02-14T13:08:37;99574.72;;;11.06;nan
79048;BME280;68680;50.764;6.120;2024-02-14T13:11:02;99577.53;;;10.93;nan
79048;BME280;68680;50.764;6.120;2024-02-14T13:13:30;99564.03;;;10.88;nan
79048;BME280;68680;50.764;6.120;2024-02-14T13:15:56;99567.97;;;10.85;nan
79048;BME280;68680;50.764;6.120;2024-02-14T13:18:21;99571.38;;;10.92;nan
79048;BME280;68680;50.764;6.120;2024-02-14T13:20:47;99571.81;;;10.89;nan
79048;BME280;68680;50.764;6.120;2024-02-14T13:23:13;99577.97;;;10.90;nan
79048;BME280;68680;50.764;6.120;2024-02-14T13:25:39;99579.38;;;10.92;nan